createdAt,value
2023-05-26T00:00:59.512Z,8.68
2023-05-26T00:03:29.698Z,8.80
2023-05-26T00:05:56.687Z,8.50
2023-05-26T00:08:23.823Z,9.05
2023-05-26T00:10:50.685Z,8.73
2023-05-26T00:13:17.393Z,8.70
2023-05-26T00:15:44.540Z,8.63
2023-05-26T00:18:12.163Z,8.38
2023-05-26T00:20:39.234Z,8.68
2023-05-26T00:23:06.365Z,8.82
2023-05-26T00:25:33.040Z,8.60
2023-05-26T00:28:01.102Z,8.68
2023-05-26T00:30:28.084Z,8.88
2023-05-26T00:32:54.891Z,8.90
2023-05-26T00:35:21.659Z,8.43
2023-05-26T00:37:48.828Z,8.13
2023-05-26T00:40:15.582Z,8.63
2023-05-26T00:42:42.261Z,8.85
2023-05-26T00:45:09.572Z,8.90
2023-05-26T00:47:36.415Z,8.48
2023-05-26T00:50:05.342Z,8.20
2023-05-26T00:52:34.270Z,9.02
2023-05-26T00:55:03.094Z,8.75
2023-05-26T00:57:30.642Z,8.65
2023-05-26T00:59:57.546Z,8.07
2023-05-26T01:02:24.305Z,8.75
2023-05-26T01:04:53.868Z,8.82
2023-05-26T01:07:23.822Z,8.52
2023-05-26T01:09:51.685Z,8.32
2023-05-26T01:12:27.464Z,8.48
2023-05-26T01:15:01.557Z,8.60
2023-05-26T01:17:33.687Z,9.00
2023-05-26T01:20:09.729Z,8.57
2023-05-26T01:22:50.031Z,8.52
2023-05-26T01:25:38.736Z,8.88
2023-05-26T01:28:29.145Z,8.00
2023-05-26T01:30:56.640Z,8.45
2023-05-26T01:33:23.365Z,8.27
2023-05-26T01:35:50.123Z,8.65
2023-05-26T01:38:16.952Z,8.35
2023-05-26T01:40:53.420Z,8.35
2023-05-26T01:43:52.677Z,8.40
2023-05-26T01:46:22.442Z,8.50
2023-05-26T01:48:50.642Z,8.30
2023-05-26T01:51:18.282Z,7.97
2023-05-26T01:53:46.023Z,8.13
2023-05-26T01:56:13.389Z,7.93
2023-05-26T01:58:40.613Z,8.27
2023-05-26T02:01:08.302Z,7.60
2023-05-26T02:03:35.223Z,7.80
2023-05-26T02:06:03.875Z,7.88
2023-05-26T02:08:30.705Z,7.85
2023-05-26T02:10:57.384Z,8.30
2023-05-26T02:13:24.012Z,8.35
2023-05-26T02:15:50.831Z,8.52
2023-05-26T02:18:17.505Z,7.97
2023-05-26T02:20:44.274Z,8.38
2023-05-26T02:23:10.945Z,7.90
2023-05-26T02:25:37.597Z,8.18
2023-05-26T02:28:04.549Z,7.45
2023-05-26T02:30:31.187Z,7.95
2023-05-26T02:32:57.920Z,8.45
2023-05-26T02:35:24.761Z,8.35
2023-05-26T02:37:51.442Z,7.93
2023-05-26T02:40:18.137Z,8.63
2023-05-26T02:42:44.895Z,8.35
2023-05-26T02:45:11.684Z,7.60
2023-05-26T02:47:38.780Z,7.88
2023-05-26T02:50:06.062Z,7.88
2023-05-26T02:52:33.182Z,8.20
2023-05-26T02:54:59.883Z,7.93
2023-05-26T02:57:27.085Z,8.20
2023-05-26T02:59:54.088Z,8.35
2023-05-26T03:02:21.088Z,7.93
2023-05-26T03:04:47.777Z,8.07
2023-05-26T03:07:14.451Z,8.65
2023-05-26T03:09:44.688Z,8.45
2023-05-26T03:12:17.067Z,8.40
2023-05-26T03:14:44.120Z,8.20
2023-05-26T03:17:12.092Z,8.15
2023-05-26T03:19:39.065Z,7.72
2023-05-26T03:22:37.785Z,8.10
2023-05-26T03:24:52.850Z,7.65
2023-05-26T03:27:23.542Z,7.72
2023-05-26T03:29:51.937Z,8.07
2023-05-26T03:32:19.330Z,8.55
2023-05-26T03:34:46.257Z,8.45
2023-05-26T03:37:13.140Z,7.80
2023-05-26T03:39:39.906Z,7.88
2023-05-26T03:42:07.033Z,7.85
2023-05-26T03:44:35.942Z,8.00
2023-05-26T03:47:02.994Z,7.43
2023-05-26T03:49:29.860Z,7.93
2023-05-26T03:51:57.122Z,8.02
2023-05-26T03:54:23.790Z,7.60
2023-05-26T03:56:50.566Z,7.53
2023-05-26T03:59:19.385Z,7.78
2023-05-26T04:01:46.096Z,7.43
2023-05-26T04:04:15.552Z,7.00
2023-05-26T04:06:42.345Z,7.50
2023-05-26T04:09:10.751Z,7.63
2023-05-26T04:11:37.504Z,7.70
2023-05-26T04:14:04.273Z,7.07
2023-05-26T04:16:31.269Z,7.10
2023-05-26T04:18:57.980Z,7.40
2023-05-26T04:21:27.981Z,7.15
2023-05-26T04:23:54.666Z,7.20
2023-05-26T04:26:22.995Z,6.85
2023-05-26T04:29:21.854Z,7.35
2023-05-26T04:32:03.690Z,7.53
2023-05-26T04:34:45.394Z,7.10
2023-05-26T04:37:34.529Z,6.95
2023-05-26T04:40:01.685Z,6.88
2023-05-26T04:42:29.026Z,7.00
2023-05-26T04:44:56.166Z,6.95
2023-05-26T04:47:24.749Z,6.88
2023-05-26T04:49:51.623Z,6.43
2023-05-26T04:52:18.383Z,6.60
2023-05-26T04:54:45.077Z,6.30
2023-05-26T04:57:11.846Z,6.25
2023-05-26T04:59:48.018Z,6.68
2023-05-26T05:02:17.075Z,6.70
2023-05-26T05:04:56.241Z,6.68
2023-05-26T05:07:22.941Z,6.30
2023-05-26T05:09:49.647Z,6.53
2023-05-26T05:12:16.698Z,6.65
2023-05-26T05:14:43.418Z,6.72
2023-05-26T05:17:10.641Z,6.80
2023-05-26T05:19:37.341Z,6.80
2023-05-26T05:22:04.897Z,6.80
2023-05-26T05:24:32.501Z,6.53
2023-05-26T05:27:00.054Z,6.45
2023-05-26T05:29:26.813Z,6.70
2023-05-26T05:31:55.075Z,7.00
2023-05-26T05:34:22.294Z,7.07
2023-05-26T05:36:49.096Z,6.60
2023-05-26T05:39:15.906Z,6.50
2023-05-26T05:41:42.653Z,6.53
2023-05-26T05:44:09.359Z,6.43
2023-05-26T05:46:36.043Z,6.80
2023-05-26T05:49:26.232Z,6.90
2023-05-26T05:51:54.292Z,6.65
2023-05-26T05:54:21.036Z,6.07
2023-05-26T05:56:48.010Z,6.10
2023-05-26T05:59:17.865Z,6.30
2023-05-26T06:01:44.546Z,6.38
2023-05-26T06:04:11.596Z,5.78
2023-05-26T06:06:38.402Z,6.32
2023-05-26T06:09:05.540Z,6.20
2023-05-26T06:11:32.734Z,5.80
2023-05-26T06:13:59.538Z,5.75
2023-05-26T06:16:26.779Z,5.82
2023-05-26T06:18:53.536Z,5.47
2023-05-26T06:21:20.751Z,5.60
2023-05-26T06:23:53.994Z,5.78
2023-05-26T06:26:22.233Z,5.88
2023-05-26T06:28:49.084Z,5.65
2023-05-26T06:31:16.683Z,5.80
2023-05-26T06:33:56.523Z,5.53
2023-05-26T06:36:23.686Z,5.15
2023-05-26T06:38:50.676Z,5.70
2023-05-26T06:41:17.537Z,5.30
2023-05-26T06:43:44.395Z,5.22
2023-05-26T06:46:11.118Z,4.80
2023-05-26T06:48:40.312Z,4.55
2023-05-26T06:51:17.273Z,5.30
2023-05-26T06:53:47.546Z,4.80
2023-05-26T06:56:14.190Z,5.20
2023-05-26T06:58:40.929Z,5.30
2023-05-26T07:01:10.056Z,5.15
2023-05-26T07:03:39.698Z,5.05
2023-05-26T07:06:06.595Z,5.10
2023-05-26T07:08:36.791Z,5.05
2023-05-26T07:11:26.251Z,5.85
2023-05-26T07:13:58.038Z,5.03
2023-05-26T07:16:25.562Z,5.10
2023-05-26T07:18:52.321Z,4.88
2023-05-26T07:21:20.339Z,4.88
2023-05-26T07:23:49.531Z,4.82
2023-05-26T07:26:16.240Z,4.70
2023-05-26T07:28:43.313Z,4.80
2023-05-26T07:31:10.951Z,4.80
2023-05-26T07:33:40.324Z,4.70
2023-05-26T07:36:07.208Z,4.70
2023-05-26T07:38:34.730Z,4.55
2023-05-26T07:41:01.453Z,4.95
2023-05-26T07:43:28.118Z,4.60
2023-05-26T07:45:54.762Z,4.80
2023-05-26T07:48:22.026Z,4.32
2023-05-26T07:50:49.164Z,4.40
2023-05-26T07:53:15.955Z,5.00
2023-05-26T07:55:42.802Z,4.50
2023-05-26T07:58:11.320Z,4.25
2023-05-26T08:00:38.816Z,4.57
2023-05-26T08:03:06.331Z,4.30
2023-05-26T08:05:33.187Z,4.22
2023-05-26T08:07:59.891Z,4.35
2023-05-26T08:10:26.752Z,4.13
2023-05-26T08:12:54.353Z,4.28
2023-05-26T08:15:22.284Z,4.30
2023-05-26T08:17:49.508Z,4.30
2023-05-26T08:20:16.704Z,4.55
2023-05-26T08:22:44.452Z,4.43
2023-05-26T08:25:11.148Z,4.47
2023-05-26T08:27:37.783Z,4.50
2023-05-26T08:30:05.042Z,4.38
2023-05-26T08:32:31.793Z,4.20
2023-05-26T08:34:58.588Z,4.60
2023-05-26T08:37:25.445Z,4.57
2023-05-26T08:39:52.100Z,4.57
2023-05-26T08:42:30.683Z,4.30
2023-05-26T08:45:01.394Z,5.03
2023-05-26T08:47:28.595Z,4.00
2023-05-26T08:50:00.222Z,4.28
2023-05-26T08:52:27.027Z,4.30
2023-05-26T08:54:53.758Z,4.65
2023-05-26T08:57:21.291Z,4.70
2023-05-26T08:59:48.978Z,4.43
2023-05-26T09:02:16.703Z,4.60
2023-05-26T09:04:43.392Z,4.00
2023-05-26T09:07:24.539Z,3.88
2023-05-26T09:09:52.987Z,4.43
2023-05-26T09:12:19.714Z,4.45
2023-05-26T09:14:46.440Z,3.83
2023-05-26T09:17:13.862Z,4.07
2023-05-26T09:19:40.679Z,3.90
2023-05-26T09:22:10.007Z,3.92
2023-05-26T09:24:44.788Z,4.20
2023-05-26T09:27:19.498Z,4.72
2023-05-26T09:30:01.492Z,3.85
2023-05-26T09:32:29.913Z,4.18
2023-05-26T09:34:58.165Z,4.10
2023-05-26T09:37:32.182Z,3.95
2023-05-26T09:40:14.022Z,4.45
2023-05-26T09:42:48.973Z,4.15
2023-05-26T09:47:42.976Z,4.30
2023-05-26T09:50:10.092Z,4.20
2023-05-26T09:52:37.361Z,4.32
2023-05-26T09:55:05.165Z,4.03
2023-05-26T09:57:33.908Z,4.10
2023-05-26T10:00:03.458Z,4.00
2023-05-26T10:02:34.316Z,4.00
2023-05-26T10:05:01.388Z,4.28
2023-05-26T10:07:29.297Z,4.05
2023-05-26T10:10:01.532Z,4.57
2023-05-26T10:12:31.949Z,4.10
2023-05-26T10:14:59.575Z,4.20
2023-05-26T10:17:27.493Z,4.57
2023-05-26T10:19:55.651Z,4.47
2023-05-26T10:22:29.745Z,4.45
2023-05-26T10:25:27.412Z,4.13
2023-05-26T10:28:23.276Z,4.60
2023-05-26T10:30:58.239Z,4.57
2023-05-26T10:33:38.267Z,4.13
2023-05-26T10:36:11.880Z,4.32
2023-05-26T10:38:39.856Z,4.55
2023-05-26T10:41:15.313Z,5.03
2023-05-26T10:43:43.947Z,4.88
2023-05-26T10:46:10.801Z,4.82
2023-05-26T10:48:41.179Z,4.53
2023-05-26T10:51:10.165Z,4.93
2023-05-26T10:53:42.461Z,4.45
2023-05-26T10:56:15.453Z,5.05
2023-05-26T10:58:47.564Z,4.80
2023-05-26T11:01:21.426Z,4.93
2023-05-26T11:03:50.041Z,5.00
2023-05-26T11:06:18.329Z,4.93
2023-05-26T11:08:51.948Z,4.88
2023-05-26T11:11:30.076Z,4.85
2023-05-26T11:14:10.993Z,5.03
2023-05-26T11:16:39.570Z,5.00
2023-05-26T11:19:08.443Z,5.30
2023-05-26T11:21:36.927Z,5.30
2023-05-26T11:24:05.049Z,5.30
2023-05-26T11:26:33.421Z,5.38
2023-05-26T11:29:04.804Z,5.22
2023-05-26T11:31:31.877Z,4.75
2023-05-26T11:33:59.056Z,4.57
2023-05-26T11:36:26.152Z,5.30
2023-05-26T11:38:58.219Z,5.03
2023-05-26T11:41:28.735Z,5.13
2023-05-26T11:43:56.258Z,4.90
2023-05-26T11:46:24.658Z,5.00
2023-05-26T11:48:51.811Z,5.28
2023-05-26T11:51:38.569Z,5.07
2023-05-26T11:54:13.331Z,5.55
2023-05-26T11:56:43.970Z,5.30
2023-05-26T11:59:10.730Z,5.13
2023-05-26T12:01:37.477Z,5.20
2023-05-26T12:04:05.747Z,4.97
2023-05-26T12:06:34.320Z,4.90
2023-05-26T12:09:04.814Z,5.10
2023-05-26T12:11:35.352Z,5.10
2023-05-26T12:14:12.648Z,4.90
2023-05-26T12:16:42.904Z,5.30
2023-05-26T12:19:13.973Z,4.72
2023-05-26T12:21:46.286Z,4.85
2023-05-26T12:24:14.076Z,5.05
2023-05-26T12:26:41.311Z,5.35
2023-05-26T12:29:12.232Z,5.55
2023-05-26T12:31:44.691Z,5.13
2023-05-26T12:34:16.208Z,4.82
2023-05-26T12:36:44.733Z,5.78
2023-05-26T12:39:13.041Z,5.50
2023-05-26T12:41:41.405Z,5.60
2023-05-26T12:44:08.994Z,5.47
2023-05-26T12:46:36.110Z,5.22
2023-05-26T12:49:03.117Z,5.47
2023-05-26T12:51:31.014Z,5.55
2023-05-26T12:53:57.947Z,5.50
2023-05-26T12:56:24.954Z,5.20
2023-05-26T12:58:51.638Z,5.45
2023-05-26T13:01:18.594Z,5.47
2023-05-26T13:03:45.558Z,5.45
2023-05-26T13:06:13.082Z,5.47
2023-05-26T13:08:40.056Z,5.90
2023-05-26T13:11:07.149Z,5.65
2023-05-26T13:13:33.865Z,5.88
2023-05-26T13:16:09.679Z,5.45
2023-05-26T13:18:44.873Z,5.85
2023-05-26T13:21:11.869Z,5.30
2023-05-26T13:23:38.539Z,5.70
2023-05-26T13:26:05.805Z,5.40
2023-05-26T13:28:32.606Z,5.50
2023-05-26T13:30:59.622Z,5.53
2023-05-26T13:33:26.348Z,5.32
2023-05-26T13:35:53.055Z,5.53
2023-05-26T13:38:19.750Z,5.60
2023-05-26T13:40:46.416Z,5.15
2023-05-26T13:43:13.061Z,5.90
2023-05-26T13:45:43.450Z,5.55
2023-05-26T13:48:19.396Z,5.72
2023-05-26T13:50:46.183Z,5.35
2023-05-26T13:53:13.106Z,5.45
2023-05-26T13:55:42.853Z,5.60
2023-05-26T13:58:09.657Z,5.53
2023-05-26T14:00:36.510Z,5.43
2023-05-26T14:03:03.427Z,6.10
2023-05-26T14:05:30.534Z,5.50
2023-05-26T14:07:59.095Z,5.65
2023-05-26T14:10:31.340Z,6.07
2023-05-26T14:12:58.094Z,6.03
2023-05-26T14:15:24.733Z,6.82
2023-05-26T14:18:06.916Z,7.32
2023-05-26T14:21:53.548Z,7.03
2023-05-26T14:23:23.910Z,7.35
2023-05-26T14:25:53.044Z,8.00
2023-05-26T14:28:19.719Z,7.18
2023-05-26T14:30:47.271Z,7.15
2023-05-26T14:33:14.154Z,6.82
2023-05-26T14:35:40.957Z,6.90
2023-05-26T14:38:07.696Z,7.00
2023-05-26T14:40:37.186Z,6.80
2023-05-26T14:43:04.595Z,6.90
2023-05-26T14:45:31.458Z,6.75
2023-05-26T14:47:58.332Z,6.90
2023-05-26T14:50:25.105Z,7.20
2023-05-26T14:52:51.812Z,7.35
2023-05-26T14:55:19.169Z,6.93
2023-05-26T14:57:45.923Z,6.70
2023-05-26T15:00:13.410Z,6.68
2023-05-26T15:02:40.690Z,6.68
2023-05-26T15:05:09.171Z,6.65
2023-05-26T15:07:36.507Z,6.88
2023-05-26T15:10:04.504Z,6.45
2023-05-26T15:12:31.825Z,6.38
2023-05-26T15:14:58.585Z,6.82
2023-05-26T15:17:26.174Z,6.00
2023-05-26T15:19:52.978Z,6.53
2023-05-26T15:22:19.673Z,6.38
2023-05-26T15:24:46.699Z,6.30
2023-05-26T15:27:13.603Z,6.28
2023-05-26T15:29:42.697Z,6.72
2023-05-26T15:32:09.502Z,6.18
2023-05-26T15:34:36.291Z,6.30
2023-05-26T15:37:02.995Z,6.20
2023-05-26T15:39:30.243Z,5.97
2023-05-26T15:41:57.034Z,5.82
2023-05-26T15:44:23.699Z,6.20
2023-05-26T15:46:50.344Z,5.97
2023-05-26T15:49:17.006Z,6.05
2023-05-26T15:51:43.674Z,5.80
2023-05-26T15:54:10.321Z,5.78
2023-05-26T15:56:37.306Z,5.93
2023-05-26T15:59:03.948Z,5.80
2023-05-26T16:01:31.961Z,6.07
2023-05-26T16:04:00.992Z,5.97
2023-05-26T16:06:27.722Z,6.07
2023-05-26T16:08:54.381Z,5.93
2023-05-26T16:11:21.164Z,5.43
2023-05-26T16:13:48.002Z,5.82
2023-05-26T16:16:14.712Z,5.45
2023-05-26T16:18:41.482Z,5.75
2023-05-26T16:21:11.076Z,5.38
2023-05-26T16:23:37.761Z,5.63
2023-05-26T16:26:05.067Z,5.53
2023-05-26T16:28:31.758Z,5.68
2023-05-26T16:30:58.827Z,5.75
2023-05-26T16:33:25.947Z,5.50
2023-05-26T16:35:54.297Z,5.70
2023-05-26T16:38:21.977Z,5.32
2023-05-26T16:40:49.396Z,5.90
2023-05-26T16:43:23.544Z,5.50
2023-05-26T16:46:02.919Z,5.40
2023-05-26T16:48:36.799Z,5.38
2023-05-26T16:51:03.927Z,5.38
2023-05-26T16:53:30.600Z,5.75
2023-05-26T16:55:57.443Z,5.30
2023-05-26T16:58:25.189Z,5.38
2023-05-26T17:00:51.872Z,5.53
2023-05-26T17:03:18.667Z,5.07
2023-05-26T17:05:45.531Z,5.30
2023-05-26T17:08:12.542Z,5.20
2023-05-26T17:10:39.188Z,5.40
2023-05-26T17:13:05.837Z,5.40
2023-05-26T17:15:33.373Z,5.07
2023-05-26T17:18:00.172Z,5.15
2023-05-26T17:20:29.826Z,5.70
2023-05-26T17:22:56.529Z,5.13
2023-05-26T17:25:23.284Z,5.28
2023-05-26T17:27:49.964Z,5.43
2023-05-26T17:30:18.180Z,5.25
2023-05-26T17:32:44.925Z,5.60
2023-05-26T17:35:11.753Z,5.43
2023-05-26T17:37:38.537Z,5.90
2023-05-26T17:40:05.711Z,5.85
2023-05-26T17:42:32.569Z,5.70
2023-05-26T17:44:59.184Z,6.00
2023-05-26T17:47:27.960Z,5.90
2023-05-26T17:49:55.986Z,6.10
2023-05-26T17:52:22.791Z,5.55
2023-05-26T17:54:49.647Z,5.95
2023-05-26T17:57:16.291Z,5.93
2023-05-26T17:59:42.972Z,6.18
2023-05-26T18:02:09.645Z,6.00
2023-05-26T18:04:36.389Z,5.82
2023-05-26T18:07:03.123Z,6.22
2023-05-26T18:09:29.816Z,5.40
2023-05-26T18:11:56.465Z,5.43
2023-05-26T18:14:23.200Z,6.00
2023-05-26T18:16:49.904Z,5.55
2023-05-26T18:19:16.599Z,6.03
2023-05-26T18:21:43.263Z,6.10
2023-05-26T18:24:10.244Z,6.43
2023-05-26T18:26:36.952Z,6.18
2023-05-26T18:29:03.911Z,6.28
2023-05-26T18:31:30.788Z,5.80
2023-05-26T18:34:00.425Z,6.10
2023-05-26T18:36:31.071Z,6.63
2023-05-26T18:38:57.875Z,6.75
2023-05-26T18:41:25.182Z,6.50
2023-05-26T18:43:52.681Z,6.72
2023-05-26T18:46:19.440Z,6.70
2023-05-26T18:48:46.483Z,6.47
2023-05-26T18:51:13.480Z,6.43
2023-05-26T18:53:40.291Z,6.78
2023-05-26T18:56:07.042Z,6.53
2023-05-26T18:58:34.026Z,6.13
2023-05-26T19:01:01.511Z,6.18
2023-05-26T19:03:28.571Z,6.22
2023-05-26T19:05:55.379Z,5.80
2023-05-26T19:08:22.195Z,5.95
2023-05-26T19:10:51.633Z,6.05
2023-05-26T19:13:18.390Z,6.30
2023-05-26T19:15:45.179Z,6.53
2023-05-26T19:18:12.008Z,5.75
2023-05-26T19:20:38.816Z,6.57
2023-05-26T19:23:06.740Z,5.75
2023-05-26T19:25:33.422Z,6.13
2023-05-26T19:28:00.393Z,6.20
2023-05-26T19:30:27.452Z,6.05
2023-05-26T19:32:54.294Z,5.65
2023-05-26T19:35:23.225Z,5.75
2023-05-26T19:37:50.351Z,5.78
2023-05-26T19:40:17.083Z,6.00
2023-05-26T19:42:43.717Z,5.78
2023-05-26T19:45:11.698Z,5.90
2023-05-26T19:47:38.582Z,5.68
2023-05-26T19:50:06.120Z,6.47
2023-05-26T19:52:32.823Z,5.90
2023-05-26T19:54:59.543Z,5.70
2023-05-26T19:57:26.176Z,5.80
2023-05-26T19:59:52.893Z,5.72
2023-05-26T20:02:19.618Z,5.45
2023-05-26T20:04:46.357Z,5.68
2023-05-26T20:07:13.095Z,5.68
2023-05-26T20:09:41.874Z,5.72
2023-05-26T20:12:09.271Z,5.85
2023-05-26T20:14:39.097Z,5.68
2023-05-26T20:17:06.492Z,5.50
2023-05-26T20:19:36.409Z,5.45
2023-05-26T20:22:09.082Z,5.55
2023-05-26T20:24:35.733Z,5.20
2023-05-26T20:27:02.368Z,5.50
2023-05-26T20:29:29.007Z,5.75
2023-05-26T20:31:56.158Z,5.53
2023-05-26T20:34:23.049Z,5.50
2023-05-26T20:36:52.098Z,5.50
2023-05-26T20:39:18.931Z,5.53
2023-05-26T20:41:45.950Z,5.47
2023-05-26T20:44:12.668Z,5.40
2023-05-26T20:46:39.445Z,5.47
2023-05-26T20:49:06.134Z,5.57
2023-05-26T20:51:33.197Z,5.40
2023-05-26T20:53:59.906Z,5.13
2023-05-26T20:56:26.730Z,5.70
2023-05-26T20:58:53.543Z,5.50
2023-05-26T21:01:20.438Z,5.20
2023-05-26T21:03:47.856Z,5.38
2023-05-26T21:06:14.566Z,5.28
2023-05-26T21:08:41.367Z,5.35
2023-05-26T21:11:08.041Z,5.43
2023-05-26T21:13:34.735Z,5.30
2023-05-26T21:16:01.694Z,5.40
2023-05-26T21:18:28.601Z,5.40
2023-05-26T21:20:55.313Z,5.00
2023-05-26T21:23:22.068Z,5.10
2023-05-26T21:25:48.869Z,5.30
2023-05-26T21:28:15.703Z,5.00
2023-05-26T21:30:42.462Z,5.07
2023-05-26T21:33:09.164Z,5.28
2023-05-26T21:35:35.899Z,5.45
2023-05-26T21:38:04.051Z,5.13
2023-05-26T21:40:30.838Z,4.95
2023-05-26T21:42:57.914Z,4.78
2023-05-26T21:45:24.752Z,5.00
2023-05-26T21:47:51.481Z,5.03
2023-05-26T21:50:18.230Z,4.60
2023-05-26T21:52:45.085Z,4.88
2023-05-26T21:55:14.152Z,4.90
2023-05-26T21:57:41.097Z,4.55
2023-05-26T22:00:11.721Z,4.32
2023-05-26T22:02:38.577Z,4.45
2023-05-26T22:05:07.365Z,4.68
2023-05-26T22:07:34.097Z,4.72
2023-05-26T22:10:01.100Z,4.57
2023-05-26T22:12:28.029Z,4.50
2023-05-26T22:14:54.701Z,4.85
2023-05-26T22:17:21.510Z,4.45
2023-05-26T22:19:48.770Z,4.93
2023-05-26T22:22:15.479Z,4.45
2023-05-26T22:24:42.371Z,4.57
2023-05-26T22:27:09.158Z,4.80
2023-05-26T22:29:35.809Z,4.30
2023-05-26T22:32:02.471Z,4.72
2023-05-26T22:34:29.234Z,4.30
2023-05-26T22:36:55.896Z,4.63
2023-05-26T22:39:22.825Z,4.50
2023-05-26T22:41:49.898Z,4.60
2023-05-26T22:44:17.358Z,4.20
2023-05-26T22:46:44.126Z,4.57
2023-05-26T22:49:11.328Z,4.15
2023-05-26T22:51:38.266Z,3.92
2023-05-26T22:54:05.767Z,4.40
2023-05-26T22:56:32.645Z,4.18
2023-05-26T22:59:00.146Z,4.30
2023-05-26T23:01:27.852Z,3.97
2023-05-26T23:03:55.110Z,4.35
2023-05-26T23:06:21.740Z,4.07
2023-05-26T23:08:48.946Z,4.18
2023-05-26T23:11:18.214Z,4.07
2023-05-26T23:13:45.220Z,3.90
2023-05-26T23:16:11.964Z,3.80
2023-05-26T23:18:38.683Z,4.07
2023-05-26T23:21:05.347Z,3.97
2023-05-26T23:23:31.992Z,4.00
2023-05-26T23:25:58.703Z,4.00
2023-05-26T23:28:25.801Z,3.97
2023-05-26T23:30:52.647Z,4.00
2023-05-26T23:33:19.300Z,4.03
2023-05-26T23:35:46.200Z,4.05
2023-05-26T23:38:12.899Z,3.90
2023-05-26T23:40:39.553Z,4.20
2023-05-26T23:43:06.523Z,3.72
2023-05-26T23:45:33.258Z,3.45
2023-05-26T23:47:59.978Z,4.00
2023-05-26T23:50:26.803Z,4.18
2023-05-26T23:52:53.499Z,3.75
2023-05-26T23:55:20.334Z,4.10
2023-05-26T23:57:47.065Z,4.13
